Time;durP1;ratioP1;P1;durP2;ratioP2;P2;SDS_P1;SDS_P2;PMS_P1;PMS_P2;Temp;Humidity;BMP_temperature;BMP_pressure;BME280_temperature;BME280_humidity;BME280_pressure;Samples;Min_cycle;Max_cycle;Signal;HPM_P1;HPM_P2
2022/03/29 00:01:09;;;;;;;5.72;1.00;;;;;;;18.84;30.36;101681.41;4213666;28;20102;-60
2022/03/29 00:03:11;;;;;;;4.32;1.35;;;;;;;18.82;30.21;101691.88;4213453;28;20495;-61
2022/03/29 00:05:12;;;;;;;5.95;1.05;;;;;;;18.84;30.57;101689.72;4213793;28;20048;-59
2022/03/29 00:07:16;;;;;;;4.35;1.00;;;;;;;18.83;30.19;101701.88;4213101;28;20036;-60
2022/03/29 00:09:18;;;;;;;3.80;0.80;;;;;;;18.79;30.62;101710.72;4213195;28;20048;-60
2022/03/29 00:11:19;;;;;;;8.77;1.27;;;;;;;18.82;30.62;101714.06;4213311;28;20077;-59
2022/03/29 00:13:23;;;;;;;5.78;0.90;;;;;;;18.84;30.30;101725.78;4212571;28;20453;-61
2022/03/29 00:15:25;;;;;;;4.50;1.00;;;;;;;18.77;30.39;101709.28;4213315;28;20101;-58
2022/03/29 00:17:28;;;;;;;3.95;1.00;;;;;;;18.85;30.61;101724.69;4212618;28;20475;-59
2022/03/29 00:19:32;;;;;;;4.45;0.90;;;;;;;18.81;30.22;101723.50;4213091;28;20471;-60
2022/03/29 00:21:35;;;;;;;4.22;0.80;;;;;;;18.79;30.24;101720.97;4212994;28;20102;-62
2022/03/29 00:23:36;;;;;;;5.75;0.95;;;;;;;18.86;30.60;101734.69;4213376;28;20463;-61
2022/03/29 00:25:41;;;;;;;3.65;0.73;;;;;;;18.85;30.12;101739.38;4212851;28;20082;-59
2022/03/29 00:27:45;;;;;;;2.45;0.90;;;;;;;18.84;30.30;101737.72;4213425;28;20066;-60
2022/03/29 00:29:47;;;;;;;1.30;0.80;;;;;;;18.86;30.59;101748.53;4213484;28;20073;-60
2022/03/29 00:31:48;;;;;;;4.03;0.85;;;;;;;18.84;30.31;101761.81;4212476;28;20441;-60
2022/03/29 00:33:51;;;;;;;4.60;0.77;;;;;;;18.86;30.14;101770.72;4212950;28;20036;-60
2022/03/29 00:35:52;;;;;;;1.90;0.82;;;;;;;18.84;30.15;101773.75;4213037;28;20081;-61
2022/03/29 00:37:57;;;;;;;2.25;0.90;;;;;;;18.84;30.40;101767.38;4212569;28;20101;-60
2022/03/29 00:40:05;;;;;;;1.43;0.90;;;;;;;18.85;30.17;101774.59;4213286;28;20040;-60
2022/03/29 00:42:09;;;;;;;2.50;0.70;;;;;;;18.86;30.04;101770.72;4213287;28;20040;-60
2022/03/29 00:44:14;;;;;;;4.38;0.90;;;;;;;18.86;29.89;101776.28;4198396;28;20093;-60
2022/03/29 00:46:15;;;;;;;5.07;1.17;;;;;;;18.86;29.82;101788.22;4216470;28;20040;-61
2022/03/29 00:48:16;;;;;;;3.28;0.70;;;;;;;18.86;30.19;101788.22;4216351;28;20044;-61
2022/03/29 00:50:19;;;;;;;3.35;1.05;;;;;;;18.86;30.23;101788.22;4216657;28;20131;-61
2022/03/29 00:52:22;;;;;;;1.67;0.60;;;;;;;18.85;30.05;101791.25;4216370;28;20044;-60
2022/03/29 00:54:23;;;;;;;1.13;0.60;;;;;;;18.86;29.96;101810.38;4216319;28;20109;-60
2022/03/29 00:56:25;;;;;;;2.00;0.80;;;;;;;18.85;30.01;101807.88;4216882;28;20044;-60
2022/03/29 00:58:27;;;;;;;2.90;1.15;;;;;;;18.83;29.85;101801.72;4216051;28;20040;-61
2022/03/29 01:00:30;;;;;;;3.45;1.00;;;;;;;18.82;29.85;101805.59;4198997;28;20033;-60
2022/03/29 01:02:32;;;;;;;3.40;0.90;;;;;;;18.83;30.11;101813.69;4215865;28;20090;-60
2022/03/29 01:04:33;;;;;;;4.63;1.00;;;;;;;18.83;29.75;101815.59;4217006;28;20028;-59
2022/03/29 01:06:38;;;;;;;1.77;0.90;;;;;;;18.83;30.22;101821.13;4215990;28;20039;-59
2022/03/29 01:08:40;;;;;;;3.80;0.90;;;;;;;18.82;30.06;101825.00;4216398;28;20475;-60
2022/03/29 01:10:44;;;;;;;1.10;0.65;;;;;;;18.81;29.92;101826.09;4197579;28;20032;-59
2022/03/29 01:12:47;;;;;;;2.35;0.80;;;;;;;18.82;30.10;101836.09;4198986;28;20086;-59
2022/03/29 01:14:49;;;;;;;4.15;0.90;;;;;;;18.82;29.93;101833.31;4199539;28;20036;-60
2022/03/29 01:19:16;;;;;;;2.47;0.80;;;;;;;18.82;29.75;101836.09;4184497;28;20095;-60
2022/03/29 01:21:20;;;;;;;3.47;1.00;;;;;;;18.81;30.01;101838.03;4165384;28;20497;-60
2022/03/29 01:23:22;;;;;;;3.05;0.82;;;;;;;18.83;29.50;101844.19;4182448;28;20094;-60
2022/03/29 01:25:39;;;;;;;1.17;0.70;;;;;;;18.83;29.98;101837.75;4182461;28;20435;-60
2022/03/29 01:27:42;;;;;;;4.25;1.00;;;;;;;18.83;30.00;101848.84;4187215;28;20029;-60
2022/03/29 01:29:44;;;;;;;1.40;0.55;;;;;;;18.84;29.60;101839.47;4182567;28;20099;-59
2022/03/29 01:31:46;;;;;;;2.13;0.82;;;;;;;18.84;29.92;101848.63;4182231;28;20037;-59
2022/03/29 01:33:48;;;;;;;2.08;0.90;;;;;;;18.83;29.80;101837.75;4182593;28;20099;-60
2022/03/29 01:35:52;;;;;;;3.22;0.75;;;;;;;18.83;29.48;101848.84;4182559;28;20091;-60
2022/03/29 01:37:55;;;;;;;1.90;0.77;;;;;;;18.83;29.66;101848.84;4182541;28;20102;-59
2022/03/29 01:39:57;;;;;;;2.65;0.88;;;;;;;18.83;29.53;101846.09;4189679;28;20032;-60
2022/03/29 01:41:58;;;;;;;1.88;0.85;;;;;;;18.84;29.74;101850.56;4198679;28;20757;-60
2022/03/29 01:44:02;;;;;;;1.17;0.75;;;;;;;18.77;29.34;101851.53;4199113;28;20468;-60
2022/03/29 01:46:07;;;;;;;2.65;1.05;;;;;;;18.84;29.37;101850.56;4198785;28;20101;-59
2022/03/29 01:48:09;;;;;;;1.25;0.73;;;;;;;18.84;29.70;101851.41;4198950;28;20445;-60
2022/03/29 01:50:14;;;;;;;3.53;0.80;;;;;;;18.82;29.51;101859.09;4198661;28;20033;-60
2022/03/29 01:52:15;;;;;;;1.30;0.70;;;;;;;18.83;29.51;101859.94;4198460;28;20074;-59
2022/03/29 01:54:20;;;;;;;1.67;1.02;;;;;;;18.83;29.48;101854.41;4197735;28;20430;-59
2022/03/29 01:56:21;;;;;;;1.17;0.60;;;;;;;18.83;29.14;101852.50;4198827;28;20036;-59
2022/03/29 01:58:29;;;;;;;2.00;0.93;;;;;;;18.79;29.60;101846.59;4198409;28;20033;-60
2022/03/29 02:00:31;;;;;;;1.80;0.80;;;;;;;18.83;29.36;101859.94;4198276;28;20040;-60
2022/03/29 02:02:34;;;;;;;1.67;0.90;;;;;;;18.84;29.45;101858.88;4196995;28;20098;-60
2022/03/29 02:04:36;;;;;;;1.20;0.82;;;;;;;18.83;29.33;101852.50;4181827;28;20044;-59
2022/03/29 02:06:38;;;;;;;2.72;0.70;;;;;;;18.84;29.62;101861.66;4180272;28;20036;-59
2022/03/29 02:08:39;;;;;;;2.75;0.82;;;;;;;18.82;29.29;101863.81;4181645;28;20041;-59
2022/03/29 02:10:41;;;;;;;4.20;0.75;;;;;;;18.85;29.61;101866.09;4181726;28;20045;-59
2022/03/29 02:12:42;;;;;;;2.17;0.85;;;;;;;18.85;29.71;101860.56;4182426;28;20440;-59
2022/03/29 02:14:46;;;;;;;4.03;1.05;;;;;;;18.83;29.56;101866.38;4181470;28;20045;-59
2022/03/29 02:16:51;;;;;;;9.82;1.10;;;;;;;18.84;29.45;101867.22;4181131;28;20037;-60
2022/03/29 02:18:57;;;;;;;3.92;1.60;;;;;;;18.83;29.54;101865.50;4174550;28;20091;-59
2022/03/29 02:20:59;;;;;;;3.55;1.17;;;;;;;18.83;29.56;101871.03;4198081;28;20097;-59
2022/03/29 02:23:08;;;;;;;7.80;0.98;;;;;;;18.79;29.29;101871.56;4196812;28;20040;-59
2022/03/29 02:25:10;;;;;;;6.28;1.10;;;;;;;18.81;29.75;101878.78;4196858;28;20037;-58
2022/03/29 02:27:12;;;;;;;4.80;0.93;;;;;;;18.81;29.52;101889.88;4197457;28;20040;-60
2022/03/29 02:29:16;;;;;;;6.13;1.00;;;;;;;18.79;29.23;101876.25;4197707;28;20044;-58
2022/03/29 02:31:17;;;;;;;7.60;1.27;;;;;;;18.79;29.60;101877.09;4197473;28;20391;-59
2022/03/29 02:33:19;;;;;;;4.50;1.00;;;;;;;18.72;29.51;101870.00;4198062;28;20040;-59
2022/03/29 02:35:20;;;;;;;6.95;0.98;;;;;;;18.78;29.62;101886.50;4197885;28;20037;-58
2022/03/29 02:37:21;;;;;;;4.07;1.10;;;;;;;18.79;29.61;101888.19;4197938;28;20040;-58
2022/03/29 02:39:23;;;;;;;3.03;0.93;;;;;;;18.78;29.61;101886.50;4198085;28;20113;-59
2022/03/29 02:41:24;;;;;;;7.45;1.20;;;;;;;18.78;29.62;101880.97;4198324;28;20102;-59
2022/03/29 02:43:26;;;;;;;5.18;1.10;;;;;;;18.77;29.50;101890.34;4197355;28;20086;-59
2022/03/29 02:45:27;;;;;;;4.13;1.13;;;;;;;18.67;29.44;101873.47;4198519;28;20025;-60
2022/03/29 02:47:31;;;;;;;9.45;2.90;;;;;;;18.77;29.46;101884.81;4197595;28;20114;-59
2022/03/29 02:49:33;;;;;;;4.90;1.48;;;;;;;18.78;29.71;101896.72;4197810;28;20032;-60
2022/03/29 02:51:34;;;;;;;6.20;1.52;;;;;;;18.76;29.46;101888.66;4197683;28;20040;-59
2022/03/29 02:53:35;;;;;;;3.10;1.10;;;;;;;18.77;29.66;101882.03;4197676;28;20094;-60
2022/03/29 02:55:38;;;;;;;5.65;1.50;;;;;;;18.74;29.87;101890.00;4197957;28;20040;-59
2022/03/29 02:57:39;;;;;;;6.15;1.50;;;;;;;18.77;29.79;101901.44;4197170;28;20040;-60
2022/03/29 02:59:41;;;;;;;5.38;1.83;;;;;;;18.76;29.85;101899.75;4197441;28;20100;-60
2022/03/29 03:01:42;;;;;;;4.78;1.52;;;;;;;18.76;30.05;101898.91;4196796;28;20036;-60
2022/03/29 03:03:44;;;;;;;4.13;1.23;;;;;;;18.75;29.89;101898.06;4197154;28;20480;-59
2022/03/29 03:05:45;;;;;;;5.72;1.58;;;;;;;18.75;30.14;101903.63;4197558;28;20106;-59
2022/03/29 03:07:47;;;;;;;4.38;1.33;;;;;;;18.76;29.98;101887.81;4197750;28;20041;-59
2022/03/29 03:09:48;;;;;;;6.38;1.48;;;;;;;18.75;30.05;101902.78;4197555;28;20036;-59
2022/03/29 03:11:49;;;;;;;4.18;1.20;;;;;;;18.75;29.96;101908.31;4197165;28;20041;-59
2022/03/29 03:13:51;;;;;;;6.55;1.60;;;;;;;18.76;29.68;101912.78;4197740;28;20098;-61
2022/03/29 03:15:52;;;;;;;4.28;1.40;;;;;;;18.75;29.99;101914.72;4197269;28;20098;-61
2022/03/29 03:17:55;;;;;;;3.72;1.52;;;;;;;18.74;29.83;101912.19;4197557;28;20097;-60
2022/03/29 03:19:56;;;;;;;4.22;1.38;;;;;;;18.75;30.04;101914.72;4197743;28;20101;-60
2022/03/29 03:21:57;;;;;;;3.53;1.20;;;;;;;18.74;30.02;101924.13;4197367;28;20048;-59
2022/03/29 03:24:04;;;;;;;4.32;1.40;;;;;;;18.71;29.90;101902.41;4196819;28;20102;-59
2022/03/29 03:26:06;;;;;;;2.13;1.10;;;;;;;18.73;29.68;101919.63;4197778;28;20036;-58
2022/03/29 03:28:07;;;;;;;3.88;1.25;;;;;;;18.72;29.64;101920.72;4197725;28;20139;-59
2022/03/29 03:30:13;;;;;;;3.88;1.25;;;;;;;18.71;29.81;101919.06;4197492;28;20126;-61
2022/03/29 03:32:17;;;;;;;2.55;1.30;;;;;;;18.74;29.92;101928.84;4197195;28;20102;-59
2022/03/29 03:34:18;;;;;;;4.88;1.35;;;;;;;18.72;29.58;101920.72;4197437;28;20040;-59
2022/03/29 03:36:20;;;;;;;3.00;1.20;;;;;;;18.74;29.61;101920.50;4196949;28;20040;-59
2022/03/29 03:38:22;;;;;;;2.97;1.25;;;;;;;18.72;29.91;101923.50;4196488;28;20040;-59
2022/03/29 03:40:26;;;;;;;2.05;0.93;;;;;;;18.72;29.51;101919.91;4197350;28;20036;-59
2022/03/29 03:42:27;;;;;;;5.13;1.52;;;;;;;18.70;29.75;101919.31;4197122;28;20118;-59
2022/03/29 03:44:31;;;;;;;2.72;1.35;;;;;;;18.69;29.68;101926.78;4197952;28;20032;-58
2022/03/29 03:46:36;;;;;;;3.60;1.58;;;;;;;18.67;29.76;101926.13;4197315;28;20093;-60
2022/03/29 03:48:37;;;;;;;4.93;1.23;;;;;;;18.70;29.77;101925.69;4197219;28;20098;-60
2022/03/29 03:50:38;;;;;;;3.35;1.05;;;;;;;18.70;29.49;101934.00;4197306;28;20110;-59
2022/03/29 03:52:43;;;;;;;2.97;1.20;;;;;;;18.67;29.69;101920.59;4196998;28;20365;-59
2022/03/29 03:54:45;;;;;;;5.68;1.20;;;;;;;18.71;29.34;101932.91;4197170;28;20032;-59
2022/03/29 03:56:46;;;;;;;3.50;1.00;;;;;;;18.71;29.52;101935.69;4196884;28;20332;-59
2022/03/29 03:58:47;;;;;;;3.03;1.10;;;;;;;18.69;29.60;101929.56;4197204;28;20048;-59
2022/03/29 04:00:49;;;;;;;4.32;1.08;;;;;;;18.72;29.61;101936.53;4197313;28;20541;-59
2022/03/29 04:02:50;;;;;;;2.38;0.98;;;;;;;18.71;29.59;101946.78;4197402;28;20028;-59
2022/03/29 04:04:52;;;;;;;1.83;1.08;;;;;;;18.72;29.60;101953.16;4197035;28;20126;-59
2022/03/29 04:06:54;;;;;;;2.65;1.00;;;;;;;18.71;29.36;101946.78;4196842;28;20032;-59
2022/03/29 04:08:55;;;;;;;2.25;0.85;;;;;;;18.71;29.41;101952.31;4177786;28;20075;-60
2022/03/29 04:10:57;;;;;;;1.80;1.17;;;;;;;18.71;29.17;101952.31;4197213;28;20033;-58
2022/03/29 04:12:58;;;;;;;2.28;1.00;;;;;;;18.72;29.69;101954.00;4196486;28;20468;-59
2022/03/29 04:14:59;;;;;;;1.92;1.05;;;;;;;18.71;29.36;101952.31;4197101;28;20073;-59
2022/03/29 04:17:01;;;;;;;2.63;0.98;;;;;;;18.71;29.51;101957.88;4198370;28;20460;-59
2022/03/29 04:19:05;;;;;;;2.78;0.93;;;;;;;18.70;29.36;101953.41;4199662;28;20052;-60
2022/03/29 04:21:11;;;;;;;2.85;1.15;;;;;;;18.71;29.05;101957.03;4200893;28;20028;-61
2022/03/29 04:23:12;;;;;;;2.47;0.90;;;;;;;18.70;29.59;101953.41;4199231;28;20101;-59
2022/03/29 04:25:14;;;;;;;2.15;0.90;;;;;;;18.71;29.03;101957.88;4200300;28;20062;-59
2022/03/29 04:27:15;;;;;;;3.92;1.30;;;;;;;18.68;29.15;101969.41;4200444;28;20041;-60
2022/03/29 04:29:17;;;;;;;1.02;0.80;;;;;;;18.71;29.43;101963.41;4200915;28;20445;-59
2022/03/29 04:31:18;;;;;;;2.20;0.98;;;;;;;18.71;29.26;101965.34;4200132;28;20522;-60
2022/03/29 04:33:20;;;;;;;0.90;0.60;;;;;;;18.70;29.38;101972.81;4200324;28;20032;-60
2022/03/29 04:35:27;;;;;;;1.20;0.80;;;;;;;18.70;29.12;101961.75;4200185;28;20044;-60
2022/03/29 04:37:29;;;;;;;2.13;0.93;;;;;;;18.71;28.95;101957.88;4198626;28;20041;-60
2022/03/29 04:39:33;;;;;;;1.38;0.73;;;;;;;18.70;29.06;101956.19;4200275;28;20484;-60
2022/03/29 04:41:37;;;;;;;3.30;1.23;;;;;;;18.69;28.93;101960.06;4199588;28;20045;-59
2022/03/29 04:43:38;;;;;;;2.60;0.90;;;;;;;18.70;29.18;101966.44;4200546;28;20032;-58
2022/03/29 04:45:42;;;;;;;1.50;0.90;;;;;;;18.70;28.99;101960.91;4198108;28;20048;-59
2022/03/29 04:47:45;;;;;;;2.30;1.00;;;;;;;18.70;29.07;101961.75;4199877;28;20033;-59
2022/03/29 04:49:47;;;;;;;1.35;0.60;;;;;;;18.70;29.26;101967.28;4199731;28;20037;-59
2022/03/29 04:51:49;;;;;;;1.27;0.40;;;;;;;18.70;28.81;101961.75;4199351;28;20446;-60
2022/03/29 04:53:50;;;;;;;1.80;0.70;;;;;;;18.68;28.64;101958.31;4199205;28;20430;-60
2022/03/29 04:55:51;;;;;;;1.73;0.60;;;;;;;18.70;28.81;101960.91;4199843;28;20185;-60
2022/03/29 04:57:53;;;;;;;2.53;0.65;;;;;;;18.68;29.15;101951.94;4199936;28;20423;-59
2022/03/29 04:59:54;;;;;;;4.80;0.82;;;;;;;18.69;28.65;101960.06;4199768;28;20427;-58
2022/03/29 05:01:56;;;;;;;2.15;0.60;;;;;;;18.68;28.90;101969.41;4199367;28;20090;-59
2022/03/29 05:03:57;;;;;;;1.77;1.10;;;;;;;18.68;28.83;101974.09;4199559;28;20549;-59
2022/03/29 05:05:59;;;;;;;1.95;0.88;;;;;;;18.67;28.73;101964.94;4199510;28;20041;-59
2022/03/29 05:08:00;;;;;;;0.88;0.60;;;;;;;18.66;28.60;101966.03;4199646;28;20052;-59
2022/03/29 05:10:02;;;;;;;4.00;0.85;;;;;;;18.63;28.54;101960.97;4199690;28;20472;-59
2022/03/29 05:12:04;;;;;;;2.72;1.10;;;;;;;18.66;28.75;101973.53;4198755;28;20032;-59
2022/03/29 05:14:05;;;;;;;3.03;0.80;;;;;;;18.66;28.82;101966.03;4199543;28;20040;-59
2022/03/29 05:16:09;;;;;;;1.15;0.63;;;;;;;18.65;28.69;101974.59;4199212;28;20090;-59
2022/03/29 05:18:11;;;;;;;0.63;0.50;;;;;;;18.65;28.71;101972.69;4199184;28;20431;-60
2022/03/29 05:20:14;;;;;;;1.20;0.60;;;;;;;18.64;28.50;101973.72;4198857;28;20044;-59
2022/03/29 05:22:15;;;;;;;2.38;0.70;;;;;;;18.64;28.84;101976.50;4198832;28;20475;-60
2022/03/29 05:24:17;;;;;;;1.45;0.60;;;;;;;18.64;28.46;101984.81;4199980;28;20028;-60
2022/03/29 05:26:18;;;;;;;1.38;0.88;;;;;;;18.64;28.44;101979.28;4199271;28;20431;-59
2022/03/29 05:28:20;;;;;;;1.38;0.80;;;;;;;18.64;28.16;101979.28;4199095;28;20426;-58
2022/03/29 05:30:22;;;;;;;0.82;0.68;;;;;;;18.64;28.79;101984.00;4199367;28;20546;-59
2022/03/29 05:32:26;;;;;;;1.52;0.70;;;;;;;18.63;28.58;101982.31;4198488;28;20048;-59
2022/03/29 05:34:27;;;;;;;2.70;0.60;;;;;;;18.61;28.39;101995.56;4198925;28;20045;-59
2022/03/29 05:36:29;;;;;;;0.95;0.60;;;;;;;18.59;28.57;101984.72;4198854;28;20040;-59
2022/03/29 05:38:30;;;;;;;1.20;0.88;;;;;;;18.60;28.37;101997.50;4197777;28;20048;-61
2022/03/29 05:40:34;;;;;;;0.50;0.50;;;;;;;18.61;28.34;102003.91;4199191;28;20102;-59
2022/03/29 05:42:44;;;;;;;1.17;0.63;;;;;;;18.59;28.55;101993.03;4198840;28;20102;-61
2022/03/29 05:44:45;;;;;;;1.15;0.68;;;;;;;18.60;28.30;102011.38;4198952;28;20049;-60
2022/03/29 05:49:06;;;;;;;0.85;0.45;;;;;;;18.60;28.39;102016.91;4200508;28;20441;-60
2022/03/29 05:51:07;;;;;;;1.48;0.65;;;;;;;18.59;28.09;102015.19;4199226;28;20098;-60
2022/03/29 05:53:09;;;;;;;1.30;0.60;;;;;;;18.59;28.45;102012.44;4198744;28;20430;-60
2022/03/29 05:55:10;;;;;;;0.75;0.65;;;;;;;18.58;28.19;102019.06;4199028;28;20040;-60
2022/03/29 05:57:16;;;;;;;1.10;0.65;;;;;;;18.57;28.07;102025.69;4198829;28;20550;-62
2022/03/29 05:59:20;;;;;;;0.93;0.50;;;;;;;18.58;28.21;102030.16;4198747;28;20049;-60
2022/03/29 06:01:21;;;;;;;1.38;0.70;;;;;;;18.57;28.25;102027.63;4198959;28;20118;-60
2022/03/29 06:03:23;;;;;;;0.98;0.52;;;;;;;18.56;27.99;102026.78;4198601;28;20075;-60
2022/03/29 06:05:27;;;;;;;0.75;0.50;;;;;;;18.52;28.20;102014.47;4199205;28;20025;-60
2022/03/29 06:07:33;;;;;;;1.05;0.68;;;;;;;18.53;28.02;102019.78;4197976;28;20106;-58
2022/03/29 06:09:35;;;;;;;0.80;0.60;;;;;;;18.54;27.80;102029.78;4199337;28;20092;-59
2022/03/29 06:11:37;;;;;;;1.33;0.60;;;;;;;18.54;28.44;102023.38;4198191;28;20040;-59
2022/03/29 06:13:38;;;;;;;1.08;0.70;;;;;;;18.53;28.32;102017.00;4198578;28;20037;-58
2022/03/29 06:15:43;;;;;;;1.08;0.70;;;;;;;18.53;28.28;102027.25;4198455;28;20033;-59
2022/03/29 06:17:44;;;;;;;0.87;0.60;;;;;;;18.52;28.24;102025.56;4198311;28;20085;-58
2022/03/29 06:19:46;;;;;;;0.60;0.50;;;;;;;18.52;28.34;102018.09;4197798;28;20462;-59
2022/03/29 06:21:47;;;;;;;0.80;0.60;;;;;;;18.48;28.29;102016.88;4198132;28;20036;-59
2022/03/29 06:23:52;;;;;;;0.98;0.63;;;;;;;18.51;28.36;102018.34;4198048;28;20089;-58
2022/03/29 06:25:55;;;;;;;1.03;0.40;;;;;;;18.50;28.52;102017.47;4198987;28;20426;-59
2022/03/29 06:27:56;;;;;;;1.10;0.70;;;;;;;18.51;28.21;102023.88;4198423;28;20794;-58
2022/03/29 06:29:57;;;;;;;0.82;0.60;;;;;;;18.49;28.28;102026.88;4198468;28;20082;-58
2022/03/29 06:31:59;;;;;;;1.15;0.70;;;;;;;18.51;28.37;102023.88;4197744;28;20094;-59
2022/03/29 06:34:01;;;;;;;0.65;0.50;;;;;;;18.51;28.30;102018.34;4198368;28;20443;-58
2022/03/29 06:36:02;;;;;;;0.73;0.55;;;;;;;18.51;28.19;102023.88;4197588;28;20446;-58
2022/03/29 06:38:04;;;;;;;0.50;0.50;;;;;;;18.51;28.41;102018.34;4197761;28;20071;-59
2022/03/29 06:40:06;;;;;;;0.60;0.50;;;;;;;18.51;28.36;102034.97;4197599;28;20070;-58
2022/03/29 06:42:08;;;;;;;1.88;0.88;;;;;;;18.49;28.52;102018.56;4198408;28;20349;-59
2022/03/29 06:44:10;;;;;;;0.90;0.63;;;;;;;18.51;28.73;102034.97;4197845;28;20162;-59
2022/03/29 06:46:11;;;;;;;2.92;0.80;;;;;;;18.52;28.42;102047.75;4197661;28;20082;-59
2022/03/29 06:48:13;;;;;;;0.47;0.45;;;;;;;18.51;28.51;102033.03;4198022;28;20036;-59
2022/03/29 06:50:15;;;;;;;0.60;0.50;;;;;;;18.50;28.67;102034.09;4197682;28;20032;-59
2022/03/29 06:52:17;;;;;;;2.75;0.70;;;;;;;18.51;28.40;102043.28;4197470;28;20040;-59
2022/03/29 06:54:19;;;;;;;0.70;0.43;;;;;;;18.52;28.60;102039.44;4197893;28;20037;-59
2022/03/29 06:56:20;;;;;;;0.82;0.50;;;;;;;18.47;28.61;102023.50;4197710;28;20102;-59
2022/03/29 06:58:23;;;;;;;1.35;0.80;;;;;;;18.51;28.26;102033.03;4198285;28;20078;-59
2022/03/29 07:00:25;;;;;;;0.57;0.50;;;;;;;18.52;28.48;102034.72;4197363;28;20044;-59
2022/03/29 07:02:29;;;;;;;0.38;0.38;;;;;;;18.52;28.36;102031.97;4197463;28;20037;-60
2022/03/29 07:04:30;;;;;;;0.60;0.50;;;;;;;18.53;28.30;102032.78;4197591;28;20040;-59
2022/03/29 07:06:32;;;;;;;0.45;0.40;;;;;;;18.53;28.49;102038.34;4198370;28;20032;-60
2022/03/29 07:08:33;;;;;;;0.50;0.50;;;;;;;18.54;28.21;102040.03;4197729;28;20102;-60
2022/03/29 07:13:03;;;;;;;1.02;0.43;;;;;;;18.56;28.72;102050.91;4197715;28;20100;-60
2022/03/29 07:15:05;;;;;;;0.63;0.50;;;;;;;18.54;28.52;102040.88;4198128;28;20029;-60
2022/03/29 07:17:11;;;;;;;1.08;0.55;;;;;;;18.55;28.82;102036.16;4197324;28;20040;-60
2022/03/29 07:19:12;;;;;;;0.63;0.50;;;;;;;18.55;28.43;102044.47;4197305;28;20040;-59
2022/03/29 07:21:14;;;;;;;0.73;0.70;;;;;;;18.53;28.37;102041.97;4197489;28;20040;-59
2022/03/29 07:23:15;;;;;;;1.17;0.50;;;;;;;18.55;28.44;102047.25;4196561;28;20036;-60
2022/03/29 07:25:18;;;;;;;0.63;0.40;;;;;;;18.56;28.69;102054.50;4196458;28;20533;-59
2022/03/29 07:27:19;;;;;;;1.48;0.70;;;;;;;18.53;28.73;102050.28;4196996;28;20434;-60
2022/03/29 07:29:21;;;;;;;0.98;0.50;;;;;;;18.56;28.31;102053.66;4196635;28;20098;-60
2022/03/29 07:31:25;;;;;;;0.60;0.50;;;;;;;18.53;28.29;102041.97;4197739;28;20480;-59
2022/03/29 07:33:26;;;;;;;1.03;0.53;;;;;;;18.58;28.56;102057.03;4179644;28;20037;-60
2022/03/29 07:35:33;;;;;;;0.60;0.50;;;;;;;18.57;28.55;102066.44;4194506;28;20048;-60
2022/03/29 07:37:35;;;;;;;0.95;0.70;;;;;;;18.56;28.58;102071.13;4196860;28;20041;-59
2022/03/29 07:39:36;;;;;;;2.13;0.52;;;;;;;18.58;28.38;102066.19;4197312;28;20048;-59
2022/03/29 07:41:37;;;;;;;0.68;0.40;;;;;;;18.57;28.59;102070.06;4196874;28;20044;-59
2022/03/29 07:43:39;;;;;;;0.60;0.50;;;;;;;18.57;28.65;102061.72;4197483;28;20472;-60
2022/03/29 07:45:40;;;;;;;1.55;0.40;;;;;;;18.56;28.55;102053.66;4198080;28;20142;-59
2022/03/29 07:47:43;;;;;;;0.90;0.50;;;;;;;18.58;28.41;102057.88;4197654;28;20044;-59
2022/03/29 07:49:45;;;;;;;0.57;0.50;;;;;;;18.59;28.39;102064.25;4197639;28;20067;-59
2022/03/29 07:51:47;;;;;;;0.82;0.65;;;;;;;18.57;28.78;102050.66;4197367;28;20081;-59
2022/03/29 07:53:48;;;;;;;0.45;0.40;;;;;;;18.57;28.36;102061.72;4197682;28;20114;-60
2022/03/29 07:55:50;;;;;;;0.63;0.47;;;;;;;18.57;28.32;102053.41;4197309;28;20102;-59
2022/03/29 07:57:57;;;;;;;0.75;0.45;;;;;;;18.58;28.85;102048.72;4196768;28;20052;-59
2022/03/29 07:59:59;;;;;;;1.02;0.50;;;;;;;18.57;28.41;102061.72;4196961;28;20484;-59
2022/03/29 08:02:00;;;;;;;0.85;0.50;;;;;;;18.58;28.43;102065.34;4196444;28;20118;-60
2022/03/29 08:04:07;;;;;;;1.13;1.00;;;;;;;18.57;28.38;102058.13;4191725;28;20461;-59
2022/03/29 08:06:09;;;;;;;0.80;0.55;;;;;;;18.58;28.66;102057.88;4197595;28;20078;-59
2022/03/29 08:08:16;;;;;;;1.60;0.60;;;;;;;18.57;28.73;102072.81;4197840;28;20430;-59
2022/03/29 08:10:17;;;;;;;1.75;0.60;;;;;;;18.58;28.30;102059.81;4196903;28;20106;-59
2022/03/29 08:12:21;;;;;;;0.55;0.50;;;;;;;18.58;28.54;102062.56;4196403;28;20468;-59
2022/03/29 08:14:25;;;;;;;0.90;0.57;;;;;;;18.57;28.79;102070.06;4196759;28;20037;-59
2022/03/29 08:16:27;;;;;;;0.77;0.47;;;;;;;18.58;28.32;102060.66;4197182;28;20109;-60
2022/03/29 08:18:35;;;;;;;1.10;0.50;;;;;;;18.54;28.48;102068.59;4196641;28;20095;-59
2022/03/29 08:20:41;;;;;;;1.70;0.60;;;;;;;18.58;28.56;102073.66;4196987;28;20492;-60
2022/03/29 08:22:46;;;;;;;0.30;0.30;;;;;;;18.54;28.52;102068.59;4196786;28;20041;-60
2022/03/29 08:24:50;;;;;;;0.85;0.57;;;;;;;18.58;28.39;102080.06;4197156;28;20040;-60
2022/03/29 08:26:56;;;;;;;0.98;0.65;;;;;;;18.57;28.31;102072.81;4196987;28;20049;-59
2022/03/29 08:28:57;;;;;;;0.35;0.35;;;;;;;18.58;28.18;102082.81;4196765;28;20033;-60
2022/03/29 08:30:59;;;;;;;1.23;0.60;;;;;;;18.58;28.55;102084.75;4197464;28;20083;-59
2022/03/29 08:33:04;;;;;;;0.65;0.60;;;;;;;18.54;28.68;102078.84;4196595;28;20094;-59
2022/03/29 08:35:09;;;;;;;;;;;;;;;18.54;28.72;102085.22;4196796;28;20040;-59
2022/03/29 08:37:10;;;;;;;1.25;0.60;;;;;;;18.59;28.30;102087.28;4197002;28;19916;-60
2022/03/29 08:39:15;;;;;;;0.98;0.50;;;;;;;18.60;28.29;102089.00;4197610;28;20094;-59
2022/03/29 08:41:17;;;;;;;1.77;0.50;;;;;;;18.58;28.54;102082.81;4196877;28;20049;-59
2022/03/29 08:43:19;;;;;;;0.80;0.70;;;;;;;18.58;28.26;102085.59;4196594;28;20086;-60
2022/03/29 08:45:26;;;;;;;1.00;0.50;;;;;;;18.58;28.34;102095.84;4196761;28;20106;-59
2022/03/29 08:47:28;;;;;;;0.70;0.60;;;;;;;18.57;28.38;102095.00;4196635;28;20093;-59
2022/03/29 08:49:31;;;;;;;1.00;0.60;;;;;;;18.56;28.65;102086.94;4196802;28;20197;-59
2022/03/29 08:51:37;;;;;;;0.75;0.40;;;;;;;18.57;28.30;102089.47;4197022;28;20029;-59
2022/03/29 08:53:39;;;;;;;0.88;0.60;;;;;;;18.57;28.17;102095.00;4196830;28;20090;-60
2022/03/29 08:55:42;;;;;;;1.00;0.60;;;;;;;18.57;28.44;102094.16;4196398;28;20087;-59
2022/03/29 08:57:44;;;;;;;0.68;0.50;;;;;;;18.58;28.55;102101.38;4196337;28;20040;-60
2022/03/29 08:59:45;;;;;;;1.33;0.50;;;;;;;18.57;28.45;102106.09;4196727;28;20111;-60
2022/03/29 09:01:47;;;;;;;0.57;0.57;;;;;;;18.57;28.47;102097.78;4196173;28;20041;-60
2022/03/29 09:04:05;;;;;;;0.73;0.60;;;;;;;18.54;28.51;102093.53;4180625;28;20492;-60
2022/03/29 09:06:11;;;;;;;0.50;0.50;;;;;;;18.57;28.48;102099.69;4197376;28;20417;-60
2022/03/29 09:08:13;;;;;;;2.05;0.50;;;;;;;18.57;28.00;102100.53;4199686;28;20392;-60
2022/03/29 09:10:19;;;;;;;0.93;0.50;;;;;;;18.56;28.55;102096.09;4198958;28;20048;-60
2022/03/29 09:12:22;;;;;;;0.57;0.50;;;;;;;18.56;28.38;102089.72;4199040;28;20036;-59
2022/03/29 09:14:26;;;;;;;0.75;0.50;;;;;;;18.55;28.04;102094.38;4198573;28;20045;-60
2022/03/29 09:16:38;;;;;;;0.70;0.60;;;;;;;18.53;28.45;102099.31;4181247;28;20107;-59
2022/03/29 09:18:55;;;;;;;0.65;0.50;;;;;;;18.53;28.37;102091.00;4198856;28;20697;-59
2022/03/29 09:21:15;;;;;;;1.05;0.50;;;;;;;18.55;28.38;102097.16;4199316;28;20044;-59
2022/03/29 09:23:21;;;;;;;0.68;0.65;;;;;;;18.56;27.80;102101.63;4199030;28;20086;-60
2022/03/29 09:25:26;;;;;;;0.70;0.70;;;;;;;18.57;28.36;102108.03;4198887;28;20430;-60
2022/03/29 09:27:27;;;;;;;0.50;0.50;;;;;;;18.56;28.00;102104.41;4198887;28;20193;-59
2022/03/29 09:29:29;;;;;;;1.13;0.60;;;;;;;18.56;27.97;102104.41;4199422;28;20036;-59
2022/03/29 09:31:30;;;;;;;0.60;0.50;;;;;;;18.51;28.25;102105.13;4199136;28;20442;-59
2022/03/29 09:33:40;;;;;;;1.20;0.70;;;;;;;18.54;28.18;102109.31;4199268;28;20437;-60
2022/03/29 09:36:10;;;;;;;0.65;0.50;;;;;;;18.54;27.83;102112.09;4198897;28;20606;-59
2022/03/29 09:38:30;;;;;;;0.77;0.77;;;;;;;18.56;28.31;102117.44;4198827;28;20060;-60